Paris, TX

12:44 AM CDT on July 04, 2015 (GMT -0500)
Paris, Texas | | Change Station
CLOSE
Current Station
Personal Weather Station
Location: Paris, TX
Elevation: 607 ft
Nearby Weather Stations

Elev 607 ft 33.66 °N, 95.57 °W | Updated 1 minute ago

Clear
Clear
76.6 °F
Feels Like 78 °F
N
0.0
Wind Variable Wind from WNW

Today
High -- | Low -- °F
--% Chance of Precip.
Yesterday
High -- | Low -- °F
Precip. -- in
6:16 AM 8:36 PM
Waning Gibbous, 94% visible
Pressure 29.92 in
Visibility 7.0 miles
Clouds Clear
Heat Index 78 °F
Dew Point 71 °F
Humidity 84%
Rainfall 0.00 in
Snow Depth Not available.
UV 0 out of 12
Pollen 3.60 out of 12
Air Quality Not available.
Flu Activity Not available.
METAR KPRX 040535Z 19008KT 7SM CLR 25/22 A2992 RMK AO1

More Conditions Fewer Conditions

Pressure 29.92 in
Visibility 7.0 miles
Clouds Clear
Heat Index 78 °F
Dew Point 71 °F
Humidity 84%
Rainfall 0.00 in
Snow Depth Not available.
UV 0 out of 12
Pollen 3.60 out of 12
Air Quality Not available.
Flu Activity Not available.
METAR KPRX 040535Z 19008KT 7SM CLR 25/22 A2992 RMK AO1

More Conditions Fewer Conditions

10-Day Weather Forecast

×

Almanac

Astronomy

Jul. 04, 2015 Rise Set
Actual Time
Civil Twilight
Nautical Twilight
Astronomical Twilight
Moon
Length of Visible Light
Length of Day
Tomorrow will be .
, % of the Moon is Illuminated

Today's Extremes

State Highs State Lows

Community

WunderPhotos

Upload Photos

1,834,923 photos uploaded!

WunderBlogs® & News

Nearby

Air Quality

  Air Quality AQ Index Pollutant
Not available.

Snow Depth

Station Depth Elevation

Earthquake Activity

City Distance Mag. Time & Date
Minimum magnitude displayed is 2.5.

Coastal Water Temperatures

Place Temperature

Stations

Nearby Weather Stations

Station Location Temp. Windchill Dew Point Humidity Wind Precip. Elev Updated Type